createdAt,value
2023-03-05T00:02:47.352Z,189
2023-03-05T00:06:50.268Z,189
2023-03-05T00:08:51.586Z,189
2023-03-05T00:10:53.476Z,189
2023-03-05T00:12:55.408Z,189
2023-03-05T00:14:57.551Z,183
2023-03-05T00:18:59.734Z,189
2023-03-05T00:21:01.570Z,189
2023-03-05T00:23:03.114Z,189
2023-03-05T00:25:04.304Z,189
2023-03-05T00:29:07.222Z,189
2023-03-05T00:31:08.817Z,183
2023-03-05T00:35:12.293Z,189
2023-03-05T00:39:15.148Z,189
2023-03-05T00:41:18.129Z,189
2023-03-05T00:43:18.142Z,189
2023-03-05T00:45:19.748Z,189
2023-03-05T00:49:22.727Z,189
2023-03-05T00:51:24.384Z,189
2023-03-05T00:55:27.513Z,183
2023-03-05T00:57:29.426Z,189
2023-03-05T01:01:32.479Z,187
2023-03-05T01:03:34.163Z,189
2023-03-05T01:05:35.335Z,189
2023-03-05T01:07:37.122Z,189
2023-03-05T01:11:39.948Z,189
2023-03-05T01:13:41.359Z,189
2023-03-05T01:17:44.496Z,189
2023-03-05T01:21:47.069Z,189
2023-03-05T01:23:48.907Z,189
2023-03-05T01:27:51.408Z,189
2023-03-05T01:31:54.560Z,189
2023-03-05T01:33:56.107Z,189
2023-03-05T01:37:59.223Z,189
2023-03-05T01:40:00.234Z,189
2023-03-05T01:42:02.198Z,189
2023-03-05T01:44:03.974Z,189
2023-03-05T01:48:06.987Z,188
2023-03-05T01:50:08.306Z,189
2023-03-05T01:52:10.156Z,189
2023-03-05T01:54:11.685Z,189
2023-03-05T01:56:13.233Z,189
2023-03-05T02:00:16.299Z,189
2023-03-05T02:04:20.142Z,189
2023-03-05T02:06:22.488Z,189
2023-03-05T02:10:24.269Z,183
2023-03-05T02:14:27.037Z,189
2023-03-05T02:16:37.203Z,189
2023-03-05T02:18:29.709Z,189
2023-03-05T02:20:31.568Z,189
2023-03-05T02:22:33.457Z,189
2023-03-05T02:24:34.705Z,183
2023-03-05T02:26:36.048Z,189
2023-03-05T02:28:37.709Z,189
2023-03-05T02:30:38.884Z,189
2023-03-05T02:32:40.276Z,189
2023-03-05T02:34:41.328Z,183
2023-03-05T02:36:42.939Z,189
2023-03-05T02:38:44.611Z,189
2023-03-05T02:42:46.727Z,189
2023-03-05T02:48:50.481Z,189
2023-03-05T02:52:52.701Z,189
2023-03-05T02:54:54.062Z,189
2023-03-05T02:56:56.027Z,189
2023-03-05T02:58:57.280Z,189
2023-03-05T03:00:58.716Z,189
2023-03-05T03:02:59.855Z,189
2023-03-05T03:05:01.034Z,189
2023-03-05T03:07:02.616Z,189
2023-03-05T03:09:04.056Z,189
2023-03-05T03:11:05.179Z,189
2023-03-05T03:13:06.193Z,189
2023-03-05T03:15:08.174Z,189
2023-03-05T03:17:09.835Z,189
2023-03-05T03:19:11.498Z,189
2023-03-05T03:21:13.423Z,189
2023-03-05T03:25:15.708Z,189
2023-03-05T03:27:16.850Z,189
2023-03-05T03:29:18.045Z,189
2023-03-05T03:31:19.118Z,189
2023-03-05T03:35:22.362Z,189
2023-03-05T03:37:23.714Z,189
2023-03-05T03:41:26.782Z,189
2023-03-05T03:45:29.907Z,189
2023-03-05T03:47:31.640Z,189
2023-03-05T03:49:32.711Z,189
2023-03-05T03:51:33.986Z,189
2023-03-05T03:55:36.987Z,189
2023-03-05T03:57:38.153Z,189
2023-03-05T04:01:41.282Z,189
2023-03-05T04:03:42.857Z,189
2023-03-05T04:05:43.962Z,189
2023-03-05T04:07:45.913Z,189
2023-03-05T04:11:48.869Z,189
2023-03-05T04:13:50.810Z,189
2023-03-05T04:17:54.261Z,189
2023-03-05T04:19:56.148Z,189
2023-03-05T04:23:59.482Z,189
2023-03-05T04:28:02.671Z,189
2023-03-05T04:30:04.432Z,189
2023-03-05T04:34:07.765Z,189
2023-03-05T04:38:11.184Z,189
2023-03-05T04:40:12.996Z,189
2023-03-05T04:44:15.202Z,189
2023-03-05T04:46:16.501Z,189
2023-03-05T04:50:19.714Z,189
2023-03-05T04:52:20.789Z,189
2023-03-05T04:54:22.746Z,189
2023-03-05T04:56:24.259Z,189
2023-03-05T05:00:26.840Z,189
2023-03-05T05:02:28.181Z,189
2023-03-05T05:06:31.372Z,189
2023-03-05T05:12:36.144Z,189
2023-03-05T05:14:37.356Z,189
2023-03-05T05:16:39.255Z,189
2023-03-05T05:18:40.767Z,183
2023-03-05T05:22:43.573Z,189
2023-03-05T05:24:44.706Z,189
2023-03-05T05:26:46.048Z,189
2023-03-05T05:28:47.512Z,189
2023-03-05T05:31:33.508Z,189
2023-03-05T05:33:34.713Z,183
2023-03-05T05:37:38.149Z,189
2023-03-05T05:39:39.664Z,189
2023-03-05T05:43:43.604Z,186
2023-03-05T05:47:47.485Z,189
2023-03-05T05:49:48.574Z,189
2023-03-05T05:53:51.640Z,189
2023-03-05T05:55:53.428Z,189
2023-03-05T05:59:56.927Z,189
2023-03-05T06:01:58.452Z,189
2023-03-05T06:03:59.725Z,189
2023-03-05T06:06:01.414Z,189
2023-03-05T06:10:03.961Z,189
2023-03-05T06:12:05.600Z,189
2023-03-05T06:16:09.331Z,189
2023-03-05T06:20:13.194Z,189
2023-03-05T06:22:14.699Z,189
2023-03-05T06:26:17.387Z,183
2023-03-05T06:30:20.953Z,189
2023-03-05T06:32:22.454Z,189
2023-03-05T06:34:32.472Z,189
2023-03-05T06:36:25.102Z,189
2023-03-05T06:38:26.689Z,189
2023-03-05T06:40:28.238Z,189
2023-03-05T06:42:29.313Z,188
2023-03-05T06:46:32.292Z,189
2023-03-05T06:48:33.429Z,189
2023-03-05T06:50:34.896Z,189
2023-03-05T06:52:36.804Z,189
2023-03-05T06:54:38.038Z,183
2023-03-05T06:58:41.835Z,189
2023-03-05T07:02:44.721Z,189
2023-03-05T07:04:45.939Z,183
2023-03-05T07:08:48.794Z,183
2023-03-05T07:12:52.115Z,189
2023-03-05T07:14:53.606Z,183
2023-03-05T07:16:54.753Z,189
2023-03-05T07:18:56.243Z,189
2023-03-05T07:20:57.685Z,189
2023-03-05T07:22:58.910Z,189
2023-03-05T07:25:00.590Z,189
2023-03-05T07:27:02.564Z,189
2023-03-05T07:29:04.421Z,189
2023-03-05T07:31:06.270Z,183
2023-03-05T07:33:07.332Z,189
2023-03-05T07:35:08.426Z,189
2023-03-05T07:37:10.134Z,183
2023-03-05T07:41:13.906Z,189
2023-03-05T07:45:16.683Z,189
2023-03-05T07:47:18.223Z,184
2023-03-05T07:51:21.206Z,189
2023-03-05T07:53:23.133Z,183
2023-03-05T07:55:24.868Z,183
2023-03-05T07:57:26.538Z,183
2023-03-05T07:59:28.560Z,189
2023-03-05T08:01:29.644Z,189
2023-03-05T08:03:31.184Z,188
2023-03-05T08:05:32.909Z,187
2023-03-05T08:07:34.352Z,189
2023-03-05T08:09:35.669Z,189
2023-03-05T08:11:37.392Z,189
2023-03-05T08:13:39.328Z,184
2023-03-05T08:15:41.021Z,183
2023-03-05T08:17:42.995Z,189
2023-03-05T08:19:44.507Z,189
2023-03-05T08:23:47.973Z,189
2023-03-05T08:25:49.492Z,189
2023-03-05T08:29:52.361Z,189
2023-03-05T08:33:54.668Z,189
2023-03-05T08:35:55.875Z,189
2023-03-05T08:37:57.757Z,189
2023-03-05T08:39:59.123Z,183
2023-03-05T08:44:02.204Z,189
2023-03-05T08:46:03.319Z,183
2023-03-05T08:48:04.895Z,183
2023-03-05T08:50:06.664Z,189
2023-03-05T08:54:09.466Z,190
2023-03-05T08:56:10.534Z,190
2023-03-05T08:58:11.824Z,190
2023-03-05T09:00:12.892Z,190
2023-03-05T09:02:13.947Z,183
2023-03-05T09:06:16.721Z,189
2023-03-05T09:08:18.063Z,190
2023-03-05T09:10:19.228Z,190
2023-03-05T09:12:20.268Z,190
2023-03-05T09:16:23.834Z,183
2023-03-05T09:18:24.791Z,190
2023-03-05T09:22:27.988Z,185
2023-03-05T09:26:30.589Z,190
2023-03-05T09:28:31.956Z,190
2023-03-05T09:32:34.616Z,190
2023-03-05T09:36:45.272Z,190
2023-03-05T09:38:38.973Z,189
2023-03-05T09:42:41.030Z,190
2023-03-05T09:44:42.176Z,189
2023-03-05T09:46:43.439Z,189
2023-03-05T09:48:45.036Z,190
2023-03-05T09:54:49.432Z,183
2023-03-05T09:56:50.731Z,183
2023-03-05T09:58:53.630Z,183
2023-03-05T10:00:53.773Z,190
2023-03-05T10:04:56.673Z,190
2023-03-05T10:06:58.108Z,183
2023-03-05T10:08:59.228Z,190
2023-03-05T10:11:00.929Z,190
2023-03-05T10:15:03.699Z,190
2023-03-05T10:17:04.803Z,190
2023-03-05T10:19:05.982Z,187
2023-03-05T10:21:07.872Z,187
2023-03-05T10:23:09.274Z,184
2023-03-05T10:25:10.447Z,190
2023-03-05T10:27:11.884Z,183
2023-03-05T10:29:13.075Z,190
2023-03-05T10:31:14.301Z,190
2023-03-05T10:33:15.023Z,191
2023-03-05T10:35:16.240Z,183
2023-03-05T10:37:17.313Z,191
2023-03-05T10:39:18.606Z,192
2023-03-05T10:41:20.362Z,360
2023-03-05T10:43:21.419Z,360
2023-03-05T10:47:23.846Z,360
2023-03-05T10:49:25.549Z,360
2023-03-05T10:51:27.189Z,360
2023-03-05T10:53:29.019Z,360
2023-03-05T10:57:32.265Z,360
2023-03-05T10:59:33.829Z,324
2023-03-05T11:01:35.228Z,322
2023-03-05T11:03:36.485Z,323
2023-03-05T11:07:40.079Z,326
2023-03-05T11:09:41.216Z,326
2023-03-05T11:11:42.321Z,322
2023-03-05T11:13:43.742Z,322
2023-03-05T11:19:48.408Z,360
2023-03-05T11:21:50.218Z,326
2023-03-05T11:23:51.884Z,325
2023-03-05T11:25:53.044Z,360
2023-03-05T11:29:56.056Z,320
2023-03-05T11:31:57.906Z,318
2023-03-05T11:33:59.441Z,325
2023-03-05T11:36:01.332Z,325
2023-03-05T11:40:04.020Z,325
2023-03-05T11:42:05.782Z,325
2023-03-05T11:44:07.049Z,318
2023-03-05T11:46:08.808Z,325
2023-03-05T11:50:11.214Z,323
2023-03-05T11:52:12.927Z,316
2023-03-05T11:54:14.152Z,316
2023-03-05T11:56:16.988Z,319
2023-03-05T12:00:18.309Z,316
2023-03-05T12:02:19.646Z,321
2023-03-05T12:06:22.813Z,322
2023-03-05T12:08:24.102Z,320
2023-03-05T12:12:27.679Z,314
2023-03-05T12:15:13.030Z,324
2023-03-05T12:17:14.886Z,360
2023-03-05T12:19:18.406Z,321
2023-03-05T12:23:19.390Z,313
2023-03-05T12:25:21.076Z,360
2023-03-05T12:29:24.412Z,313
2023-03-05T12:33:27.416Z,313
2023-03-05T12:37:30.420Z,317
2023-03-05T12:39:31.948Z,326
2023-03-05T12:41:33.584Z,316
2023-03-05T12:43:34.887Z,135
2023-03-05T12:45:36.283Z,163
2023-03-05T12:47:39.343Z,164
2023-03-05T12:49:38.656Z,164
2023-03-05T12:51:40.392Z,321
2023-03-05T12:53:41.409Z,336
2023-03-05T12:55:42.532Z,200
2023-03-05T12:57:43.784Z,201
2023-03-05T12:59:45.171Z,207
2023-03-05T13:01:46.958Z,207
2023-03-05T13:05:50.448Z,207
2023-03-05T13:07:52.103Z,206
2023-03-05T13:09:54.024Z,206
2023-03-05T13:11:55.497Z,207
2023-03-05T13:15:58.295Z,199
2023-03-05T13:17:59.353Z,207
2023-03-05T13:20:00.938Z,203
2023-03-05T13:22:02.767Z,332
2023-03-05T13:24:03.866Z,335
2023-03-05T13:26:04.905Z,337
2023-03-05T13:28:06.487Z,337
2023-03-05T13:30:08.423Z,338
2023-03-05T13:32:09.452Z,338
2023-03-05T13:34:11.089Z,335
2023-03-05T13:36:12.133Z,329
2023-03-05T13:38:13.986Z,328
2023-03-05T13:40:15.800Z,330
2023-03-05T13:42:16.940Z,324
2023-03-05T13:44:19.013Z,329
2023-03-05T13:48:21.081Z,322
2023-03-05T13:50:22.760Z,322
2023-03-05T13:54:25.620Z,360
2023-03-05T13:58:28.097Z,321
2023-03-05T14:00:29.932Z,321
2023-03-05T14:02:33.106Z,322
2023-03-05T14:04:32.791Z,360
2023-03-05T14:06:34.315Z,320
2023-03-05T14:08:35.625Z,320
2023-03-05T14:10:36.576Z,360
2023-03-05T14:12:38.095Z,321
2023-03-05T14:14:39.303Z,320
2023-03-05T14:18:41.523Z,320
2023-03-05T14:20:42.485Z,322
2023-03-05T14:22:43.587Z,320
2023-03-05T14:24:45.533Z,320
2023-03-05T14:26:47.361Z,303
2023-03-05T14:30:50.062Z,311
2023-03-05T14:32:51.772Z,303
2023-03-05T14:34:53.419Z,313
2023-03-05T14:36:54.768Z,314
2023-03-05T14:40:57.720Z,314
2023-03-05T14:42:59.084Z,310
2023-03-05T14:47:01.994Z,300
2023-03-05T14:51:04.610Z,310
2023-03-05T14:53:06.573Z,310
2023-03-05T14:55:07.622Z,310
2023-03-05T14:57:09.447Z,300
2023-03-05T15:01:12.221Z,300
2023-03-05T15:03:13.893Z,303
2023-03-05T15:07:17.732Z,300
2023-03-05T15:09:18.768Z,300
2023-03-05T15:11:20.183Z,310
2023-03-05T15:13:22.094Z,302
2023-03-05T15:17:25.459Z,301
2023-03-05T15:19:26.754Z,310
2023-03-05T15:23:30.204Z,301
2023-03-05T15:25:31.277Z,310
2023-03-05T15:29:34.177Z,300
2023-03-05T15:33:36.905Z,300
2023-03-05T15:35:38.183Z,301
2023-03-05T15:39:40.926Z,306
2023-03-05T15:43:44.317Z,310
2023-03-05T15:45:45.337Z,310
2023-03-05T15:47:46.745Z,310
2023-03-05T15:49:47.950Z,300
2023-03-05T15:51:49.791Z,300
2023-03-05T15:53:51.492Z,310
2023-03-05T15:55:53.362Z,300
2023-03-05T15:57:54.484Z,301
2023-03-05T15:59:56.407Z,300
2023-03-05T16:01:57.511Z,310
2023-03-05T16:03:58.491Z,310
2023-03-05T16:05:59.927Z,310
2023-03-05T16:08:01.301Z,310
2023-03-05T16:12:04.134Z,300
2023-03-05T16:14:05.314Z,310
2023-03-05T16:18:08.382Z,300
2023-03-05T16:22:11.277Z,300
2023-03-05T16:24:12.595Z,310
2023-03-05T16:26:13.915Z,300
2023-03-05T16:28:15.646Z,310
2023-03-05T16:30:16.659Z,300
2023-03-05T16:32:18.709Z,300
2023-03-05T16:34:20.303Z,300
2023-03-05T16:36:21.959Z,300
2023-03-05T16:38:23.326Z,300
2023-03-05T16:40:24.490Z,300
2023-03-05T16:42:25.495Z,300
2023-03-05T16:44:26.618Z,300
2023-03-05T16:46:28.050Z,310
2023-03-05T16:48:29.858Z,300
2023-03-05T16:50:31.555Z,300
2023-03-05T16:54:34.207Z,300
2023-03-05T16:56:36.139Z,300
2023-03-05T16:58:37.833Z,300
2023-03-05T17:00:39.364Z,300
2023-03-05T17:04:43.062Z,300
2023-03-05T17:06:44.627Z,300
2023-03-05T17:10:47.317Z,300
2023-03-05T17:14:50.772Z,300
2023-03-05T17:16:52.619Z,300
2023-03-05T17:18:53.680Z,300
2023-03-05T17:20:55.209Z,300
2023-03-05T17:27:00.030Z,300
2023-03-05T17:29:01.180Z,310
2023-03-05T17:31:02.830Z,300
2023-03-05T17:33:04.748Z,300
2023-03-05T17:37:07.198Z,300
2023-03-05T17:39:08.837Z,300
2023-03-05T17:41:10.044Z,300
2023-03-05T17:43:11.430Z,300
2023-03-05T17:47:14.688Z,300
2023-03-05T17:49:16.425Z,310
2023-03-05T17:53:18.713Z,300
2023-03-05T17:57:22.527Z,300
2023-03-05T17:59:23.574Z,300
2023-03-05T18:03:26.959Z,300
2023-03-05T18:07:29.807Z,300
2023-03-05T18:09:31.035Z,300
2023-03-05T18:13:34.137Z,300
2023-03-05T18:15:35.285Z,300
2023-03-05T18:17:36.666Z,300
2023-03-05T18:19:38.714Z,300
2023-03-05T18:23:41.947Z,300
2023-03-05T18:25:43.322Z,300
2023-03-05T18:29:46.657Z,310
2023-03-05T18:31:47.660Z,300
2023-03-05T18:35:49.979Z,300
2023-03-05T18:39:52.219Z,300
2023-03-05T18:41:53.442Z,300
2023-03-05T18:45:56.916Z,300
2023-03-05T18:47:57.909Z,300
2023-03-05T18:49:59.867Z,310
2023-03-05T18:52:01.684Z,300
2023-03-05T18:54:03.373Z,300
2023-03-05T18:56:04.573Z,300
2023-03-05T18:58:05.941Z,310
2023-03-05T19:00:07.705Z,300
2023-03-05T19:00:51.633Z,303
2023-03-05T19:02:53.451Z,310
2023-03-05T19:04:55.250Z,309
2023-03-05T19:06:56.466Z,310
2023-03-05T19:08:57.885Z,300
2023-03-05T19:12:59.928Z,300
2023-03-05T19:15:01.325Z,300
2023-03-05T19:19:04.455Z,300
2023-03-05T19:23:07.952Z,300
2023-03-05T19:25:09.881Z,300
2023-03-05T19:27:11.192Z,300
2023-03-05T19:29:13.035Z,310
2023-03-05T19:31:14.491Z,300
2023-03-05T19:33:15.785Z,300
2023-03-05T19:35:17.297Z,193
2023-03-05T19:37:19.121Z,186
2023-03-05T19:39:20.948Z,193
2023-03-05T19:41:22.178Z,193
2023-03-05T19:43:23.551Z,193
2023-03-05T19:45:25.613Z,186
2023-03-05T19:47:28.104Z,186
2023-03-05T19:49:28.072Z,193
2023-03-05T19:51:29.037Z,193
2023-03-05T19:55:32.412Z,192
2023-03-05T19:57:33.516Z,189
2023-03-05T19:59:35.057Z,193
2023-03-05T20:01:36.328Z,197
2023-03-05T20:05:39.741Z,197
2023-03-05T20:07:41.564Z,197
2023-03-05T20:09:42.811Z,197
2023-03-05T20:11:43.929Z,197
2023-03-05T20:15:46.207Z,197
2023-03-05T20:17:47.482Z,197
2023-03-05T20:19:49.402Z,197
2023-03-05T20:21:50.889Z,197
2023-03-05T20:27:54.943Z,197
2023-03-05T20:29:56.017Z,197
2023-03-05T20:31:57.592Z,197
2023-03-05T20:33:59.052Z,190
2023-03-05T20:38:02.199Z,190
2023-03-05T20:40:03.392Z,197
2023-03-05T20:42:05.433Z,190
2023-03-05T20:44:06.690Z,197
2023-03-05T20:48:09.193Z,197
2023-03-05T20:50:10.414Z,197
2023-03-05T20:54:13.856Z,197
2023-03-05T20:58:17.261Z,197
2023-03-05T21:00:18.451Z,197
2023-03-05T21:04:21.080Z,197
2023-03-05T21:08:24.131Z,197
2023-03-05T21:10:25.567Z,197
2023-03-05T21:14:28.348Z,197
2023-03-05T21:16:29.727Z,197
2023-03-05T21:18:30.978Z,190
2023-03-05T21:20:32.323Z,197
2023-03-05T21:26:35.743Z,197
2023-03-05T21:28:36.854Z,197
2023-03-05T21:30:38.637Z,197
2023-03-05T21:32:40.257Z,197
2023-03-05T21:36:42.683Z,190
2023-03-05T21:38:44.344Z,197
2023-03-05T21:40:45.465Z,197
2023-03-05T21:42:46.862Z,197
2023-03-05T21:46:49.982Z,197
2023-03-05T21:48:51.947Z,197
2023-03-05T21:50:53.405Z,197
2023-03-05T21:52:54.857Z,197
2023-03-05T21:54:56.737Z,197
2023-03-05T21:56:57.857Z,197
2023-03-05T21:58:59.091Z,195
2023-03-05T22:01:00.299Z,197
2023-03-05T22:03:02.095Z,190
2023-03-05T22:05:03.082Z,197
2023-03-05T22:07:06.496Z,197
2023-03-05T22:09:06.228Z,197
2023-03-05T22:11:07.686Z,197
2023-03-05T22:13:09.304Z,197
2023-03-05T22:15:10.812Z,197
2023-03-05T22:19:14.299Z,197
2023-03-05T22:21:16.031Z,197
2023-03-05T22:23:17.403Z,197
2023-03-05T22:25:18.639Z,197
2023-03-05T22:29:21.668Z,197
2023-03-05T22:31:23.686Z,197
2023-03-05T22:39:28.330Z,197
2023-03-05T22:41:29.571Z,197
2023-03-05T22:45:33.045Z,197
2023-03-05T22:47:34.893Z,197
2023-03-05T22:49:36.198Z,197
2023-03-05T22:51:38.177Z,197
2023-03-05T22:57:42.407Z,197
2023-03-05T22:59:44.306Z,190
2023-03-05T23:01:45.462Z,197
2023-03-05T23:03:46.670Z,197
2023-03-05T23:07:49.764Z,197
2023-03-05T23:09:51.511Z,190
2023-03-05T23:11:53.347Z,197
2023-03-05T23:13:54.816Z,197
2023-03-05T23:17:57.407Z,197
2023-03-05T23:19:59.068Z,192
2023-03-05T23:22:00.370Z,197
2023-03-05T23:24:01.977Z,197
2023-03-05T23:26:03.806Z,197
2023-03-05T23:28:05.413Z,197
2023-03-05T23:30:06.620Z,197
2023-03-05T23:32:07.864Z,190
2023-03-05T23:34:09.377Z,197
2023-03-05T23:36:11.203Z,197
2023-03-05T23:38:13.120Z,197
2023-03-05T23:40:14.380Z,197
2023-03-05T23:42:15.904Z,197
2023-03-05T23:44:17.314Z,197
2023-03-05T23:46:19.177Z,197
2023-03-05T23:50:21.762Z,197
2023-03-05T23:52:23.221Z,197
2023-03-05T23:56:26.990Z,197
